sensor_id;sensor_type;location;lat;lon;timestamp;temperature;humidity
820;DHT22;392;48.838;2.322;2022-08-19T00:00:40;22.60;36.30
820;DHT22;392;48.838;2.322;2022-08-19T00:03:08;22.50;36.90
820;DHT22;392;48.838;2.322;2022-08-19T00:05:36;22.40;37.20
820;DHT22;392;48.838;2.322;2022-08-19T00:08:03;22.50;37.20
820;DHT22;392;48.838;2.322;2022-08-19T00:10:30;22.40;37.50
820;DHT22;392;48.838;2.322;2022-08-19T00:12:59;22.40;38.10
820;DHT22;392;48.838;2.322;2022-08-19T00:15:27;22.50;37.30
820;DHT22;392;48.838;2.322;2022-08-19T00:17:56;22.50;36.80
820;DHT22;392;48.838;2.322;2022-08-19T00:20:25;22.40;36.70
820;DHT22;392;48.838;2.322;2022-08-19T00:22:53;22.30;37.60
820;DHT22;392;48.838;2.322;2022-08-19T00:25:21;22.30;37.80
820;DHT22;392;48.838;2.322;2022-08-19T00:27:49;22.30;37.20
820;DHT22;392;48.838;2.322;2022-08-19T00:30:16;22.20;37.10
820;DHT22;392;48.838;2.322;2022-08-19T00:32:43;22.20;37.20
820;DHT22;392;48.838;2.322;2022-08-19T00:35:12;22.20;37.00
820;DHT22;392;48.838;2.322;2022-08-19T00:37:39;22.20;36.90
820;DHT22;392;48.838;2.322;2022-08-19T00:40:11;22.20;37.40
820;DHT22;392;48.838;2.322;2022-08-19T00:42:39;22.20;37.50
820;DHT22;392;48.838;2.322;2022-08-19T00:45:11;22.30;36.90
820;DHT22;392;48.838;2.322;2022-08-19T00:47:43;22.40;36.90
820;DHT22;392;48.838;2.322;2022-08-19T00:50:14;22.40;36.60
820;DHT22;392;48.838;2.322;2022-08-19T00:52:44;22.40;36.40
820;DHT22;392;48.838;2.322;2022-08-19T00:55:16;22.40;36.50
820;DHT22;392;48.838;2.322;2022-08-19T00:57:48;22.30;37.00
820;DHT22;392;48.838;2.322;2022-08-19T01:00:21;22.30;36.60
820;DHT22;392;48.838;2.322;2022-08-19T01:02:49;22.40;36.60
820;DHT22;392;48.838;2.322;2022-08-19T01:05:22;22.30;36.90
820;DHT22;392;48.838;2.322;2022-08-19T01:07:50;22.30;36.50
820;DHT22;392;48.838;2.322;2022-08-19T01:10:22;22.30;37.00
820;DHT22;392;48.838;2.322;2022-08-19T01:12:52;22.20;36.90
820;DHT22;392;48.838;2.322;2022-08-19T01:15:25;22.20;37.20
820;DHT22;392;48.838;2.322;2022-08-19T01:17:55;22.20;37.20
820;DHT22;392;48.838;2.322;2022-08-19T01:20:25;22.20;37.00
820;DHT22;392;48.838;2.322;2022-08-19T01:22:56;22.10;37.20
820;DHT22;392;48.838;2.322;2022-08-19T01:25:28;22.10;37.80
820;DHT22;392;48.838;2.322;2022-08-19T01:27:57;22.00;38.70
820;DHT22;392;48.838;2.322;2022-08-19T01:30:27;22.00;38.40
820;DHT22;392;48.838;2.322;2022-08-19T01:32:57;22.00;38.40
820;DHT22;392;48.838;2.322;2022-08-19T01:35:28;21.90;38.30
820;DHT22;392;48.838;2.322;2022-08-19T01:38:00;21.90;39.00
820;DHT22;392;48.838;2.322;2022-08-19T01:40:33;22.00;38.70
820;DHT22;392;48.838;2.322;2022-08-19T01:43:03;21.90;38.40
820;DHT22;392;48.838;2.322;2022-08-19T01:45:33;21.90;38.60
820;DHT22;392;48.838;2.322;2022-08-19T01:48:02;21.90;39.10
820;DHT22;392;48.838;2.322;2022-08-19T01:50:31;22.00;38.80
820;DHT22;392;48.838;2.322;2022-08-19T01:53:01;22.10;38.70
820;DHT22;392;48.838;2.322;2022-08-19T01:55:31;22.10;37.80
820;DHT22;392;48.838;2.322;2022-08-19T01:58:00;22.00;38.10
820;DHT22;392;48.838;2.322;2022-08-19T02:00:31;22.00;38.20
820;DHT22;392;48.838;2.322;2022-08-19T02:02:59;22.00;38.20
820;DHT22;392;48.838;2.322;2022-08-19T02:05:27;22.10;37.80
820;DHT22;392;48.838;2.322;2022-08-19T02:07:55;22.10;37.50
820;DHT22;392;48.838;2.322;2022-08-19T02:10:24;22.10;37.60
820;DHT22;392;48.838;2.322;2022-08-19T02:12:52;22.10;37.60
820;DHT22;392;48.838;2.322;2022-08-19T02:15:20;21.90;38.20
820;DHT22;392;48.838;2.322;2022-08-19T02:17:48;21.80;39.70
820;DHT22;392;48.838;2.322;2022-08-19T02:20:15;22.00;38.90
820;DHT22;392;48.838;2.322;2022-08-19T02:22:43;22.00;38.50
820;DHT22;392;48.838;2.322;2022-08-19T02:25:11;21.90;39.80
820;DHT22;392;48.838;2.322;2022-08-19T02:27:41;21.90;39.60
820;DHT22;392;48.838;2.322;2022-08-19T02:30:12;21.80;39.40
820;DHT22;392;48.838;2.322;2022-08-19T02:32:42;21.80;39.80
820;DHT22;392;48.838;2.322;2022-08-19T02:35:11;21.90;39.80
820;DHT22;392;48.838;2.322;2022-08-19T02:37:39;21.80;39.70
820;DHT22;392;48.838;2.322;2022-08-19T02:40:24;21.80;39.80
820;DHT22;392;48.838;2.322;2022-08-19T02:42:52;21.70;40.40
820;DHT22;392;48.838;2.322;2022-08-19T02:45:20;21.70;40.80
820;DHT22;392;48.838;2.322;2022-08-19T02:47:47;21.70;41.10
820;DHT22;392;48.838;2.322;2022-08-19T02:50:14;21.60;41.90
820;DHT22;392;48.838;2.322;2022-08-19T02:52:42;21.70;42.70
820;DHT22;392;48.838;2.322;2022-08-19T02:55:09;21.70;42.40
820;DHT22;392;48.838;2.322;2022-08-19T02:57:36;21.70;42.80
820;DHT22;392;48.838;2.322;2022-08-19T03:00:06;21.70;42.80
820;DHT22;392;48.838;2.322;2022-08-19T03:02:37;21.70;43.00
820;DHT22;392;48.838;2.322;2022-08-19T03:05:06;21.80;42.60
820;DHT22;392;48.838;2.322;2022-08-19T03:07:35;21.80;42.30
820;DHT22;392;48.838;2.322;2022-08-19T03:10:02;21.70;43.10
820;DHT22;392;48.838;2.322;2022-08-19T03:12:30;21.70;43.50
820;DHT22;392;48.838;2.322;2022-08-19T03:14:57;21.70;44.30
820;DHT22;392;48.838;2.322;2022-08-19T03:17:26;21.70;43.90
820;DHT22;392;48.838;2.322;2022-08-19T03:19:53;21.70;44.70
820;DHT22;392;48.838;2.322;2022-08-19T03:22:21;21.70;45.30
820;DHT22;392;48.838;2.322;2022-08-19T03:24:48;21.70;45.30
820;DHT22;392;48.838;2.322;2022-08-19T03:27:15;21.80;45.10
820;DHT22;392;48.838;2.322;2022-08-19T03:29:43;21.80;44.90
820;DHT22;392;48.838;2.322;2022-08-19T03:32:11;21.80;44.80
820;DHT22;392;48.838;2.322;2022-08-19T03:34:40;21.80;44.80
820;DHT22;392;48.838;2.322;2022-08-19T03:37:09;21.70;44.70
820;DHT22;392;48.838;2.322;2022-08-19T03:39:39;21.70;44.80
820;DHT22;392;48.838;2.322;2022-08-19T03:42:08;21.70;44.90
820;DHT22;392;48.838;2.322;2022-08-19T03:44:36;21.70;44.80
820;DHT22;392;48.838;2.322;2022-08-19T03:47:04;21.80;44.80
820;DHT22;392;48.838;2.322;2022-08-19T03:49:32;21.80;44.10
820;DHT22;392;48.838;2.322;2022-08-19T03:52:02;21.80;44.00
820;DHT22;392;48.838;2.322;2022-08-19T03:54:33;21.90;44.40
820;DHT22;392;48.838;2.322;2022-08-19T03:57:00;21.80;44.10
820;DHT22;392;48.838;2.322;2022-08-19T03:59:30;21.70;44.60
820;DHT22;392;48.838;2.322;2022-08-19T04:02:01;21.70;44.80
820;DHT22;392;48.838;2.322;2022-08-19T04:04:30;21.70;44.80
820;DHT22;392;48.838;2.322;2022-08-19T04:06:58;21.70;44.80
820;DHT22;392;48.838;2.322;2022-08-19T04:09:26;21.70;44.70
820;DHT22;392;48.838;2.322;2022-08-19T04:11:55;21.70;44.70
820;DHT22;392;48.838;2.322;2022-08-19T04:14:26;21.60;44.70
820;DHT22;392;48.838;2.322;2022-08-19T04:16:56;21.50;44.80
820;DHT22;392;48.838;2.322;2022-08-19T04:19:24;21.50;45.30
820;DHT22;392;48.838;2.322;2022-08-19T04:21:53;21.60;45.00
820;DHT22;392;48.838;2.322;2022-08-19T04:24:22;21.60;44.70
820;DHT22;392;48.838;2.322;2022-08-19T04:26:51;21.70;44.70
820;DHT22;392;48.838;2.322;2022-08-19T04:29:21;21.70;43.70
820;DHT22;392;48.838;2.322;2022-08-19T04:31:51;21.70;43.80
820;DHT22;392;48.838;2.322;2022-08-19T04:34:22;21.70;43.90
820;DHT22;392;48.838;2.322;2022-08-19T04:36:51;21.70;43.70
820;DHT22;392;48.838;2.322;2022-08-19T04:39:20;21.70;44.00
820;DHT22;392;48.838;2.322;2022-08-19T04:42:11;21.70;44.10
820;DHT22;392;48.838;2.322;2022-08-19T04:44:56;21.70;44.20
820;DHT22;392;48.838;2.322;2022-08-19T04:47:24;21.60;45.10
820;DHT22;392;48.838;2.322;2022-08-19T04:49:51;21.60;45.60
820;DHT22;392;48.838;2.322;2022-08-19T04:52:18;21.60;45.80
820;DHT22;392;48.838;2.322;2022-08-19T04:54:46;21.60;45.80
820;DHT22;392;48.838;2.322;2022-08-19T04:57:16;21.40;46.60
820;DHT22;392;48.838;2.322;2022-08-19T04:59:43;21.30;48.10
820;DHT22;392;48.838;2.322;2022-08-19T05:02:10;21.30;48.70
820;DHT22;392;48.838;2.322;2022-08-19T05:04:38;21.20;49.30
820;DHT22;392;48.838;2.322;2022-08-19T05:07:06;21.30;50.70
820;DHT22;392;48.838;2.322;2022-08-19T05:09:35;21.30;49.50
820;DHT22;392;48.838;2.322;2022-08-19T05:12:03;21.20;49.30
820;DHT22;392;48.838;2.322;2022-08-19T05:14:32;21.20;49.90
820;DHT22;392;48.838;2.322;2022-08-19T05:17:02;21.30;49.70
820;DHT22;392;48.838;2.322;2022-08-19T05:19:29;21.30;49.10
820;DHT22;392;48.838;2.322;2022-08-19T05:22:14;21.30;49.00
820;DHT22;392;48.838;2.322;2022-08-19T05:25:05;21.40;48.90
820;DHT22;392;48.838;2.322;2022-08-19T05:27:33;21.40;49.30
820;DHT22;392;48.838;2.322;2022-08-19T05:30:03;21.50;48.10
820;DHT22;392;48.838;2.322;2022-08-19T05:32:31;21.40;48.60
820;DHT22;392;48.838;2.322;2022-08-19T05:34:59;21.20;49.00
820;DHT22;392;48.838;2.322;2022-08-19T05:37:26;21.20;48.90
820;DHT22;392;48.838;2.322;2022-08-19T05:39:54;21.20;49.20
820;DHT22;392;48.838;2.322;2022-08-19T05:42:22;21.20;49.60
820;DHT22;392;48.838;2.322;2022-08-19T05:44:49;21.20;49.60
820;DHT22;392;48.838;2.322;2022-08-19T05:47:19;21.20;49.50
820;DHT22;392;48.838;2.322;2022-08-19T05:49:47;21.30;49.50
820;DHT22;392;48.838;2.322;2022-08-19T05:52:16;21.20;50.10
820;DHT22;392;48.838;2.322;2022-08-19T05:54:44;21.30;50.80
820;DHT22;392;48.838;2.322;2022-08-19T05:57:14;21.30;50.70
820;DHT22;392;48.838;2.322;2022-08-19T05:59:41;21.30;51.60
820;DHT22;392;48.838;2.322;2022-08-19T06:02:11;21.30;51.50
820;DHT22;392;48.838;2.322;2022-08-19T06:04:40;21.20;52.10
820;DHT22;392;48.838;2.322;2022-08-19T06:07:09;21.20;53.10
820;DHT22;392;48.838;2.322;2022-08-19T06:09:36;21.20;53.70
820;DHT22;392;48.838;2.322;2022-08-19T06:12:04;21.20;54.30
820;DHT22;392;48.838;2.322;2022-08-19T06:14:34;21.10;54.20
820;DHT22;392;48.838;2.322;2022-08-19T06:17:02;21.20;54.70
820;DHT22;392;48.838;2.322;2022-08-19T06:19:30;21.20;54.70
820;DHT22;392;48.838;2.322;2022-08-19T06:21:59;21.20;54.30
820;DHT22;392;48.838;2.322;2022-08-19T06:24:28;21.20;54.30
820;DHT22;392;48.838;2.322;2022-08-19T06:26:58;21.20;54.30
820;DHT22;392;48.838;2.322;2022-08-19T06:29:27;21.10;55.20
820;DHT22;392;48.838;2.322;2022-08-19T06:31:57;21.10;55.60
820;DHT22;392;48.838;2.322;2022-08-19T06:34:25;21.20;56.50
820;DHT22;392;48.838;2.322;2022-08-19T06:36:55;21.40;54.50
820;DHT22;392;48.838;2.322;2022-08-19T06:39:29;21.50;53.10
820;DHT22;392;48.838;2.322;2022-08-19T06:42:05;21.60;51.80
820;DHT22;392;48.838;2.322;2022-08-19T06:44:36;21.60;52.30
820;DHT22;392;48.838;2.322;2022-08-19T06:47:06;21.50;52.30
820;DHT22;392;48.838;2.322;2022-08-19T06:49:35;21.50;52.60
820;DHT22;392;48.838;2.322;2022-08-19T06:52:03;21.50;52.40
820;DHT22;392;48.838;2.322;2022-08-19T06:54:32;21.50;52.80
820;DHT22;392;48.838;2.322;2022-08-19T06:57:02;21.40;52.90
820;DHT22;392;48.838;2.322;2022-08-19T06:59:30;21.40;53.30
820;DHT22;392;48.838;2.322;2022-08-19T07:02:00;21.30;53.80
820;DHT22;392;48.838;2.322;2022-08-19T07:04:33;21.40;53.70
820;DHT22;392;48.838;2.322;2022-08-19T07:07:03;21.30;53.70
820;DHT22;392;48.838;2.322;2022-08-19T07:09:35;21.30;54.00
820;DHT22;392;48.838;2.322;2022-08-19T07:12:04;21.30;54.20
820;DHT22;392;48.838;2.322;2022-08-19T07:14:34;21.30;54.00
820;DHT22;392;48.838;2.322;2022-08-19T07:17:04;21.40;54.20
820;DHT22;392;48.838;2.322;2022-08-19T07:19:33;21.40;53.50
820;DHT22;392;48.838;2.322;2022-08-19T07:22:02;21.50;53.40
820;DHT22;392;48.838;2.322;2022-08-19T07:24:30;21.40;52.70
820;DHT22;392;48.838;2.322;2022-08-19T07:27:02;21.40;53.40
820;DHT22;392;48.838;2.322;2022-08-19T07:29:33;21.40;54.50
820;DHT22;392;48.838;2.322;2022-08-19T07:32:02;21.30;54.20
820;DHT22;392;48.838;2.322;2022-08-19T07:34:31;21.30;55.10
820;DHT22;392;48.838;2.322;2022-08-19T07:37:02;21.30;55.20
820;DHT22;392;48.838;2.322;2022-08-19T07:39:33;21.40;54.50
820;DHT22;392;48.838;2.322;2022-08-19T07:42:05;21.50;53.90
820;DHT22;392;48.838;2.322;2022-08-19T07:44:35;21.50;54.70
820;DHT22;392;48.838;2.322;2022-08-19T07:47:03;21.50;54.10
820;DHT22;392;48.838;2.322;2022-08-19T07:49:32;21.50;53.90
820;DHT22;392;48.838;2.322;2022-08-19T07:52:03;21.60;53.90
820;DHT22;392;48.838;2.322;2022-08-19T07:54:34;21.50;54.40
820;DHT22;392;48.838;2.322;2022-08-19T07:57:04;21.60;54.10
820;DHT22;392;48.838;2.322;2022-08-19T07:59:33;21.50;54.60
820;DHT22;392;48.838;2.322;2022-08-19T08:02:02;21.50;54.60
820;DHT22;392;48.838;2.322;2022-08-19T08:04:30;21.60;54.60
820;DHT22;392;48.838;2.322;2022-08-19T08:07:20;21.70;53.00
820;DHT22;392;48.838;2.322;2022-08-19T08:10:06;21.80;52.30
820;DHT22;392;48.838;2.322;2022-08-19T08:12:37;22.00;51.70
820;DHT22;392;48.838;2.322;2022-08-19T08:15:10;22.00;50.60
820;DHT22;392;48.838;2.322;2022-08-19T08:17:42;22.00;51.20
820;DHT22;392;48.838;2.322;2022-08-19T08:20:10;22.10;50.20
820;DHT22;392;48.838;2.322;2022-08-19T08:22:43;22.20;50.00
820;DHT22;392;48.838;2.322;2022-08-19T08:25:28;22.30;48.80
820;DHT22;392;48.838;2.322;2022-08-19T08:27:58;22.30;49.20
820;DHT22;392;48.838;2.322;2022-08-19T08:30:28;22.30;48.60
820;DHT22;392;48.838;2.322;2022-08-19T08:32:56;22.30;48.50
820;DHT22;392;48.838;2.322;2022-08-19T08:35:24;22.20;49.10
820;DHT22;392;48.838;2.322;2022-08-19T08:37:53;22.20;49.50
820;DHT22;392;48.838;2.322;2022-08-19T08:40:23;22.00;50.10
820;DHT22;392;48.838;2.322;2022-08-19T08:43:00;21.90;51.90
820;DHT22;392;48.838;2.322;2022-08-19T08:45:30;21.90;52.10
820;DHT22;392;48.838;2.322;2022-08-19T08:48:04;21.90;52.00
820;DHT22;392;48.838;2.322;2022-08-19T08:50:41;21.90;52.00
820;DHT22;392;48.838;2.322;2022-08-19T08:53:10;22.00;51.50
820;DHT22;392;48.838;2.322;2022-08-19T08:55:44;21.90;52.40
820;DHT22;392;48.838;2.322;2022-08-19T08:58:17;21.80;52.30
820;DHT22;392;48.838;2.322;2022-08-19T09:00:48;21.80;53.00
820;DHT22;392;48.838;2.322;2022-08-19T09:03:19;21.90;52.60
820;DHT22;392;48.838;2.322;2022-08-19T09:05:55;21.90;52.30
820;DHT22;392;48.838;2.322;2022-08-19T09:08:36;22.00;52.10
820;DHT22;392;48.838;2.322;2022-08-19T09:11:08;22.00;51.50
820;DHT22;392;48.838;2.322;2022-08-19T09:13:47;22.00;52.10
820;DHT22;392;48.838;2.322;2022-08-19T09:16:30;22.00;51.90
820;DHT22;392;48.838;2.322;2022-08-19T09:19:01;22.00;51.50
820;DHT22;392;48.838;2.322;2022-08-19T09:21:30;22.20;51.20
820;DHT22;392;48.838;2.322;2022-08-19T09:23:58;22.40;49.80
820;DHT22;392;48.838;2.322;2022-08-19T09:26:26;22.50;48.40
820;DHT22;392;48.838;2.322;2022-08-19T09:28:55;22.70;47.70
820;DHT22;392;48.838;2.322;2022-08-19T09:31:27;22.80;46.90
820;DHT22;392;48.838;2.322;2022-08-19T09:33:55;22.80;46.70
820;DHT22;392;48.838;2.322;2022-08-19T09:36:25;22.80;46.40
820;DHT22;392;48.838;2.322;2022-08-19T09:38:55;22.80;45.90
820;DHT22;392;48.838;2.322;2022-08-19T09:41:24;22.90;45.90
820;DHT22;392;48.838;2.322;2022-08-19T09:43:53;22.90;45.90
820;DHT22;392;48.838;2.322;2022-08-19T09:46:25;22.90;45.90
820;DHT22;392;48.838;2.322;2022-08-19T09:48:56;22.90;45.90
820;DHT22;392;48.838;2.322;2022-08-19T09:51:26;23.10;45.70
820;DHT22;392;48.838;2.322;2022-08-19T09:53:58;23.10;44.70
820;DHT22;392;48.838;2.322;2022-08-19T09:56:27;23.20;44.10
820;DHT22;392;48.838;2.322;2022-08-19T09:58:59;23.20;44.00
820;DHT22;392;48.838;2.322;2022-08-19T10:01:29;23.20;43.90
820;DHT22;392;48.838;2.322;2022-08-19T10:03:59;23.20;44.60
820;DHT22;392;48.838;2.322;2022-08-19T10:06:29;23.10;44.00
820;DHT22;392;48.838;2.322;2022-08-19T10:08:59;23.10;44.40
820;DHT22;392;48.838;2.322;2022-08-19T10:11:26;23.10;44.30
820;DHT22;392;48.838;2.322;2022-08-19T10:13:54;23.10;44.40
820;DHT22;392;48.838;2.322;2022-08-19T10:16:23;23.20;43.90
820;DHT22;392;48.838;2.322;2022-08-19T10:18:51;23.30;43.80
820;DHT22;392;48.838;2.322;2022-08-19T10:21:22;23.10;44.50
820;DHT22;392;48.838;2.322;2022-08-19T10:23:52;23.10;45.50
820;DHT22;392;48.838;2.322;2022-08-19T10:26:22;23.20;45.10
820;DHT22;392;48.838;2.322;2022-08-19T10:28:52;23.40;44.20
820;DHT22;392;48.838;2.322;2022-08-19T10:31:21;23.50;43.00
820;DHT22;392;48.838;2.322;2022-08-19T10:33:51;23.60;42.20
820;DHT22;392;48.838;2.322;2022-08-19T10:36:25;23.60;41.90
820;DHT22;392;48.838;2.322;2022-08-19T10:38:56;23.70;41.90
820;DHT22;392;48.838;2.322;2022-08-19T10:41:26;23.90;41.40
820;DHT22;392;48.838;2.322;2022-08-19T10:43:56;24.10;39.40
820;DHT22;392;48.838;2.322;2022-08-19T10:46:27;24.20;39.70
820;DHT22;392;48.838;2.322;2022-08-19T10:48:57;24.30;39.50
820;DHT22;392;48.838;2.322;2022-08-19T10:51:24;24.60;38.10
820;DHT22;392;48.838;2.322;2022-08-19T10:54:09;24.80;37.20
820;DHT22;392;48.838;2.322;2022-08-19T10:56:36;24.60;36.70
820;DHT22;392;48.838;2.322;2022-08-19T10:59:19;24.50;38.20
820;DHT22;392;48.838;2.322;2022-08-19T11:01:50;24.30;38.50
820;DHT22;392;48.838;2.322;2022-08-19T11:04:20;24.30;39.70
820;DHT22;392;48.838;2.322;2022-08-19T11:06:49;24.50;38.50
820;DHT22;392;48.838;2.322;2022-08-19T11:09:18;25.10;36.60
820;DHT22;392;48.838;2.322;2022-08-19T11:11:46;25.40;34.80
820;DHT22;392;48.838;2.322;2022-08-19T11:14:15;25.50;34.40
820;DHT22;392;48.838;2.322;2022-08-19T11:16:44;25.50;33.80
820;DHT22;392;48.838;2.322;2022-08-19T11:19:13;25.50;33.80
820;DHT22;392;48.838;2.322;2022-08-19T11:21:45;25.40;34.30
820;DHT22;392;48.838;2.322;2022-08-19T11:24:16;25.40;34.10
820;DHT22;392;48.838;2.322;2022-08-19T11:26:46;25.30;34.60
820;DHT22;392;48.838;2.322;2022-08-19T11:29:16;25.20;35.00
820;DHT22;392;48.838;2.322;2022-08-19T11:31:46;25.40;34.90
820;DHT22;392;48.838;2.322;2022-08-19T11:34:18;25.50;34.30
820;DHT22;392;48.838;2.322;2022-08-19T11:36:47;25.30;34.40
820;DHT22;392;48.838;2.322;2022-08-19T11:39:17;25.20;35.10
820;DHT22;392;48.838;2.322;2022-08-19T11:41:47;25.10;35.60
820;DHT22;392;48.838;2.322;2022-08-19T11:44:14;24.90;36.50
820;DHT22;392;48.838;2.322;2022-08-19T11:46:44;24.90;36.80
820;DHT22;392;48.838;2.322;2022-08-19T11:49:12;24.70;37.30
820;DHT22;392;48.838;2.322;2022-08-19T11:51:42;24.70;38.00
820;DHT22;392;48.838;2.322;2022-08-19T11:54:15;24.60;38.30
820;DHT22;392;48.838;2.322;2022-08-19T11:56:43;24.60;39.10
820;DHT22;392;48.838;2.322;2022-08-19T11:59:11;24.40;40.60
820;DHT22;392;48.838;2.322;2022-08-19T12:01:38;24.30;43.20
820;DHT22;392;48.838;2.322;2022-08-19T12:04:06;24.20;44.00
820;DHT22;392;48.838;2.322;2022-08-19T12:06:33;24.20;44.20
820;DHT22;392;48.838;2.322;2022-08-19T12:09:07;24.20;44.20
820;DHT22;392;48.838;2.322;2022-08-19T12:11:36;24.20;44.80
820;DHT22;392;48.838;2.322;2022-08-19T12:14:04;24.30;42.70
820;DHT22;392;48.838;2.322;2022-08-19T12:16:31;24.30;44.30
820;DHT22;392;48.838;2.322;2022-08-19T12:19:00;24.30;45.00
820;DHT22;392;48.838;2.322;2022-08-19T12:21:32;24.00;46.90
820;DHT22;392;48.838;2.322;2022-08-19T12:24:02;24.00;46.90
820;DHT22;392;48.838;2.322;2022-08-19T12:26:31;23.90;46.50
820;DHT22;392;48.838;2.322;2022-08-19T12:28:59;23.90;46.60
820;DHT22;392;48.838;2.322;2022-08-19T12:31:26;23.90;46.80
820;DHT22;392;48.838;2.322;2022-08-19T12:33:55;23.70;46.60
820;DHT22;392;48.838;2.322;2022-08-19T12:36:23;23.50;48.30
820;DHT22;392;48.838;2.322;2022-08-19T12:38:51;23.50;48.80
820;DHT22;392;48.838;2.322;2022-08-19T12:41:20;23.70;48.00
820;DHT22;392;48.838;2.322;2022-08-19T12:43:49;23.70;48.10
820;DHT22;392;48.838;2.322;2022-08-19T12:46:17;23.80;47.30
820;DHT22;392;48.838;2.322;2022-08-19T12:48:45;23.80;46.70
820;DHT22;392;48.838;2.322;2022-08-19T12:51:16;23.80;47.20
820;DHT22;392;48.838;2.322;2022-08-19T12:53:45;23.80;47.50
820;DHT22;392;48.838;2.322;2022-08-19T12:56:13;23.80;47.50
820;DHT22;392;48.838;2.322;2022-08-19T12:58:41;23.90;46.80
820;DHT22;392;48.838;2.322;2022-08-19T13:01:12;24.10;44.80
820;DHT22;392;48.838;2.322;2022-08-19T13:03:41;24.30;44.80
820;DHT22;392;48.838;2.322;2022-08-19T13:06:09;24.40;43.50
820;DHT22;392;48.838;2.322;2022-08-19T13:08:37;24.70;40.50
820;DHT22;392;48.838;2.322;2022-08-19T13:11:10;24.90;39.80
820;DHT22;392;48.838;2.322;2022-08-19T13:13:39;25.10;39.40
820;DHT22;392;48.838;2.322;2022-08-19T13:16:10;25.30;37.70
820;DHT22;392;48.838;2.322;2022-08-19T13:18:39;25.40;37.80
820;DHT22;392;48.838;2.322;2022-08-19T13:21:09;25.40;36.00
820;DHT22;392;48.838;2.322;2022-08-19T13:23:39;25.50;35.40
820;DHT22;392;48.838;2.322;2022-08-19T13:26:09;25.70;34.20
820;DHT22;392;48.838;2.322;2022-08-19T13:28:37;25.70;33.90
820;DHT22;392;48.838;2.322;2022-08-19T13:31:27;25.70;32.90
820;DHT22;392;48.838;2.322;2022-08-19T13:34:14;25.70;33.30
820;DHT22;392;48.838;2.322;2022-08-19T13:36:42;25.60;33.70
820;DHT22;392;48.838;2.322;2022-08-19T13:39:10;25.70;33.70
820;DHT22;392;48.838;2.322;2022-08-19T13:41:44;25.80;33.40
820;DHT22;392;48.838;2.322;2022-08-19T13:44:13;26.20;31.50
820;DHT22;392;48.838;2.322;2022-08-19T13:46:42;26.30;31.60
820;DHT22;392;48.838;2.322;2022-08-19T13:49:11;26.50;30.30
820;DHT22;392;48.838;2.322;2022-08-19T13:51:42;26.80;29.50
820;DHT22;392;48.838;2.322;2022-08-19T13:54:10;27.20;28.60
820;DHT22;392;48.838;2.322;2022-08-19T13:56:40;27.60;27.20
820;DHT22;392;48.838;2.322;2022-08-19T13:59:08;28.00;26.10
820;DHT22;392;48.838;2.322;2022-08-19T14:01:36;28.20;25.50
820;DHT22;392;48.838;2.322;2022-08-19T14:04:05;28.20;25.80
820;DHT22;392;48.838;2.322;2022-08-19T14:06:33;28.20;25.20
820;DHT22;392;48.838;2.322;2022-08-19T14:09:00;28.30;25.20
820;DHT22;392;48.838;2.322;2022-08-19T14:11:28;28.30;24.90
820;DHT22;392;48.838;2.322;2022-08-19T14:13:56;28.30;24.90
820;DHT22;392;48.838;2.322;2022-08-19T14:16:23;28.10;25.10
820;DHT22;392;48.838;2.322;2022-08-19T14:18:51;27.90;25.10
820;DHT22;392;48.838;2.322;2022-08-19T14:21:23;27.70;25.70
820;DHT22;392;48.838;2.322;2022-08-19T14:23:51;27.60;25.90
820;DHT22;392;48.838;2.322;2022-08-19T14:26:19;27.60;26.00
820;DHT22;392;48.838;2.322;2022-08-19T14:28:48;27.60;25.90
820;DHT22;392;48.838;2.322;2022-08-19T14:31:16;27.40;25.90
820;DHT22;392;48.838;2.322;2022-08-19T14:33:45;27.40;26.10
820;DHT22;392;48.838;2.322;2022-08-19T14:36:13;27.50;25.90
820;DHT22;392;48.838;2.322;2022-08-19T14:38:42;27.50;25.80
820;DHT22;392;48.838;2.322;2022-08-19T14:41:12;27.50;25.80
820;DHT22;392;48.838;2.322;2022-08-19T14:43:42;27.60;25.60
820;DHT22;392;48.838;2.322;2022-08-19T14:46:12;27.50;25.70
820;DHT22;392;48.838;2.322;2022-08-19T14:48:41;27.50;26.50
820;DHT22;392;48.838;2.322;2022-08-19T14:51:08;27.40;25.70
820;DHT22;392;48.838;2.322;2022-08-19T14:53:36;27.30;26.10
820;DHT22;392;48.838;2.322;2022-08-19T14:56:09;27.30;26.30
820;DHT22;392;48.838;2.322;2022-08-19T14:58:38;27.10;26.40
820;DHT22;392;48.838;2.322;2022-08-19T15:01:07;26.80;26.90
820;DHT22;392;48.838;2.322;2022-08-19T15:03:35;26.70;27.20
820;DHT22;392;48.838;2.322;2022-08-19T15:06:04;26.60;27.80
820;DHT22;392;48.838;2.322;2022-08-19T15:08:34;26.50;27.80
820;DHT22;392;48.838;2.322;2022-08-19T15:11:02;26.40;28.40
820;DHT22;392;48.838;2.322;2022-08-19T15:13:36;26.30;28.40
820;DHT22;392;48.838;2.322;2022-08-19T15:16:05;26.30;28.40
820;DHT22;392;48.838;2.322;2022-08-19T15:18:32;26.20;28.60
820;DHT22;392;48.838;2.322;2022-08-19T15:21:01;26.20;28.80
820;DHT22;392;48.838;2.322;2022-08-19T15:23:29;26.10;28.80
820;DHT22;392;48.838;2.322;2022-08-19T15:25:57;26.10;29.70
820;DHT22;392;48.838;2.322;2022-08-19T15:28:26;26.20;29.60
820;DHT22;392;48.838;2.322;2022-08-19T15:30:54;26.20;29.20
820;DHT22;392;48.838;2.322;2022-08-19T15:33:21;26.20;29.00
820;DHT22;392;48.838;2.322;2022-08-19T15:35:48;26.20;29.00
820;DHT22;392;48.838;2.322;2022-08-19T15:38:17;26.20;29.10
820;DHT22;392;48.838;2.322;2022-08-19T15:40:48;26.20;29.10
820;DHT22;392;48.838;2.322;2022-08-19T15:43:17;26.20;29.10
820;DHT22;392;48.838;2.322;2022-08-19T15:45:47;26.30;29.10
820;DHT22;392;48.838;2.322;2022-08-19T15:48:15;26.30;28.90
820;DHT22;392;48.838;2.322;2022-08-19T15:50:42;26.30;28.80
820;DHT22;392;48.838;2.322;2022-08-19T15:53:10;26.40;28.90
820;DHT22;392;48.838;2.322;2022-08-19T15:55:42;26.30;28.90
820;DHT22;392;48.838;2.322;2022-08-19T15:58:12;26.30;29.10
820;DHT22;392;48.838;2.322;2022-08-19T16:01:01;26.20;29.10
820;DHT22;392;48.838;2.322;2022-08-19T16:03:48;26.10;29.00
820;DHT22;392;48.838;2.322;2022-08-19T16:06:34;25.90;29.50
820;DHT22;392;48.838;2.322;2022-08-19T16:09:03;25.80;29.90
820;DHT22;392;48.838;2.322;2022-08-19T16:11:32;25.70;30.30
820;DHT22;392;48.838;2.322;2022-08-19T16:14:01;25.70;30.60
820;DHT22;392;48.838;2.322;2022-08-19T16:16:32;25.70;30.80
820;DHT22;392;48.838;2.322;2022-08-19T16:19:02;25.60;31.10
820;DHT22;392;48.838;2.322;2022-08-19T16:21:34;25.60;31.10
820;DHT22;392;48.838;2.322;2022-08-19T16:24:04;25.60;31.10
820;DHT22;392;48.838;2.322;2022-08-19T16:26:33;25.60;31.50
820;DHT22;392;48.838;2.322;2022-08-19T16:29:03;25.50;31.90
820;DHT22;392;48.838;2.322;2022-08-19T16:31:35;25.50;32.30
820;DHT22;392;48.838;2.322;2022-08-19T16:34:03;25.50;32.60
820;DHT22;392;48.838;2.322;2022-08-19T16:36:31;25.50;32.60
820;DHT22;392;48.838;2.322;2022-08-19T16:38:58;25.50;32.40
820;DHT22;392;48.838;2.322;2022-08-19T16:41:27;25.50;32.10
820;DHT22;392;48.838;2.322;2022-08-19T16:43:54;25.60;32.10
820;DHT22;392;48.838;2.322;2022-08-19T16:46:22;25.60;31.70
820;DHT22;392;48.838;2.322;2022-08-19T16:48:51;25.60;31.70
820;DHT22;392;48.838;2.322;2022-08-19T16:51:19;25.60;31.70